Langleyville, Illinois
Current Conditions -  °F | °C
As of 10:15 AM on Thursday 30 Oct 2014 (Local Time) from KTAZ Reporting Station
Clear Clear  
Wind Chill:   Ceiling: Unl
Heat Index:   Visibility: 10mi
Dew Point:   Wind: 12mph
Humidity: 66%   Direction: 170°S
Pressure: 30.14"   Gusts: NA
Location:  39.5521°N, 89.3216°W
Report Text: KTAZ 301515Z AUTO 17010KT 10SM CLR 09/03 A3014 RMK AO2
Loading
Personal Weather Stations






























Interactive Weather Map
Tropical Storm Tracking
New forecast layout! Learn more

10-Day Weather Forecast

Advertisements
Track Severe Weather on mobile